Agenda, Kansas
Current Conditions -  °F | °C
As of 1:55 AM on Sunday 26 Oct 2014 (Local Time) from KCNK Reporting Station
Clear Clear  
Wind Chill: 58°   Ceiling: Unl
Heat Index: 58°   Visibility: 8mi
Dew Point: 56°   Wind: 5mph
Humidity: 93%   Direction: 110°ESE
Pressure: 29.9"   Gusts: NA
Location:  39.71°N, 97.43°W
Report Text: KCNK 260655Z AUTO 11004KT 8SM CLR 14/13 A2990 RMK AO2 SLP113 T01440133
Loading
Personal Weather Stations






























Interactive Weather Map
Tropical Storm Tracking
New forecast layout! Learn more

10-Day Weather Forecast

Advertisements
Track Severe Weather on mobile